Time;durP1;ratioP1;P1;durP2;ratioP2;P2;SDS_P1;SDS_P2;PMS_P1;PMS_P2;Temp;Humidity;BMP_temperature;BMP_pressure;BME280_temperature;BME280_humidity;BME280_pressure;Samples;Min_cycle;Max_cycle;Signal;HPM_P1;HPM_P2
2022/07/21 00:00:48;;;;;;;;;4.00;4.00;;;;;;;;5053081;28;51088;-61
2022/07/21 00:03:13;;;;;;;;;4.67;4.67;;;;;;;;5053172;28;51170;-61
2022/07/21 00:05:39;;;;;;;;;5.00;4.33;;;;;;;;5053056;28;50928;-61
2022/07/21 00:08:04;;;;;;;;;5.33;5.33;;;;;;;;5043888;28;52771;-62
2022/07/21 00:10:29;;;;;;;;;5.00;5.00;;;;;;;;5054581;28;51103;-62
2022/07/21 00:12:55;;;;;;;;;4.00;4.00;;;;;;;;5053178;28;51128;-62
2022/07/21 00:15:21;;;;;;;;;4.00;4.00;;;;;;;;5053089;28;50996;-61
2022/07/21 00:17:46;;;;;;;;;4.00;4.00;;;;;;;;5058047;28;51892;-61
2022/07/21 00:20:13;;;;;;;;;5.67;5.67;;;;;;;;5053001;28;51026;-62
2022/07/21 00:22:39;;;;;;;;;4.33;4.33;;;;;;;;5053135;28;50981;-62
2022/07/21 00:25:04;;;;;;;;;3.00;3.00;;;;;;;;5052900;28;50992;-61
2022/07/21 00:27:30;;;;;;;;;3.67;3.67;;;;;;;;5054218;28;51102;-61
2022/07/21 00:29:55;;;;;;;;;3.67;3.67;;;;;;;;5053985;28;50950;-62
2022/07/21 00:32:20;;;;;;;;;5.00;5.00;;;;;;;;5033950;28;51066;-61
2022/07/21 00:34:45;;;;;;;;;5.00;4.67;;;;;;;;5053440;28;51125;-62
2022/07/21 00:37:10;;;;;;;;;3.67;3.67;;;;;;;;5056528;28;51942;-61
2022/07/21 00:39:36;;;;;;;;;4.00;4.00;;;;;;;;5054626;28;51125;-62
2022/07/21 00:42:01;;;;;;;;;3.67;3.67;;;;;;;;5052525;28;51374;-61
2022/07/21 00:44:27;;;;;;;;;5.00;4.33;;;;;;;;5052990;28;51411;-61
2022/07/21 00:46:53;;;;;;;;;4.00;4.00;;;;;;;;5034255;28;50938;-63
2022/07/21 00:49:19;;;;;;;;;4.33;4.33;;;;;;;;5053106;28;50912;-62
2022/07/21 00:51:44;;;;;;;;;6.00;6.00;;;;;;;;5051838;28;51139;-62
2022/07/21 00:54:10;;;;;;;;;4.67;4.67;;;;;;;;5053977;28;51146;-62
2022/07/21 00:56:35;;;;;;;;;4.33;4.33;;;;;;;;5052505;28;51165;-61
2022/07/21 00:59:01;;;;;;;;;5.00;5.00;;;;;;;;5056925;28;52313;-62
2022/07/21 01:01:26;;;;;;;;;3.67;3.67;;;;;;;;5054184;28;51577;-62
2022/07/21 01:03:51;;;;;;;;;4.00;4.00;;;;;;;;5052761;28;51191;-61
2022/07/21 01:06:16;;;;;;;;;4.00;4.00;;;;;;;;5052104;28;52131;-61
2022/07/21 01:08:41;;;;;;;;;5.00;4.67;;;;;;;;5052766;28;51096;-61
2022/07/21 01:11:07;;;;;;;;;5.00;5.00;;;;;;;;5056829;28;51169;-62
2022/07/21 01:13:32;;;;;;;;;4.00;4.00;;;;;;;;5047841;28;51000;-62
2022/07/21 01:15:58;;;;;;;;;6.33;6.33;;;;;;;;5052298;28;51345;-62
2022/07/21 01:18:23;;;;;;;;;5.00;5.00;;;;;;;;5052124;28;50932;-62
2022/07/21 01:20:51;;;;;;;;;5.00;5.00;;;;;;;;5052922;28;51267;-61
2022/07/21 01:23:16;;;;;;;;;5.33;5.00;;;;;;;;5054924;28;51247;-61
2022/07/21 01:25:46;;;;;;;;;4.33;4.33;;;;;;;;5052176;28;51907;-62
2022/07/21 01:28:11;;;;;;;;;5.33;5.00;;;;;;;;5033429;28;51051;-62
2022/07/21 01:30:36;;;;;;;;;6.00;6.00;;;;;;;;5051319;28;50925;-63
2022/07/21 01:33:02;;;;;;;;;5.67;5.33;;;;;;;;5034053;28;51156;-62
2022/07/21 01:35:27;;;;;;;;;4.00;4.00;;;;;;;;5051863;28;52099;-61
2022/07/21 01:37:52;;;;;;;;;5.00;5.00;;;;;;;;5051990;28;51103;-64
2022/07/21 01:43:01;;;;;;;;;5.00;5.00;;;;;;;;5056619;28;51035;-61
2022/07/21 01:45:26;;;;;;;;;7.33;7.00;;;;;;;;5051321;28;51676;-63
2022/07/21 01:47:52;;;;;;;;;5.67;5.33;;;;;;;;5051842;28;51004;-62
2022/07/21 01:50:20;;;;;;;;;6.00;5.33;;;;;;;;5052117;28;50937;-62
2022/07/21 01:52:45;;;;;;;;;4.33;4.33;;;;;;;;5053339;28;50881;-62
2022/07/21 01:55:11;;;;;;;;;5.00;5.00;;;;;;;;5060484;28;51579;-61
2022/07/21 01:57:36;;;;;;;;;6.00;6.00;;;;;;;;5051581;28;50977;-62
2022/07/21 02:00:02;;;;;;;;;3.00;3.00;;;;;;;;5051221;28;51301;-61
2022/07/21 02:02:27;;;;;;;;;5.00;5.00;;;;;;;;5051270;28;51005;-62
2022/07/21 02:04:52;;;;;;;;;6.67;6.67;;;;;;;;5043766;28;51842;-62
2022/07/21 02:07:17;;;;;;;;;7.00;5.00;;;;;;;;5050688;28;50906;-62
2022/07/21 02:09:43;;;;;;;;;7.67;7.00;;;;;;;;5051620;28;50958;-61
2022/07/21 02:12:08;;;;;;;;;5.00;5.00;;;;;;;;5050751;28;51444;-61
2022/07/21 02:14:34;;;;;;;;;6.00;6.00;;;;;;;;5054171;28;52281;-61
2022/07/21 02:16:59;;;;;;;;;7.00;6.00;;;;;;;;5054442;28;50886;-62
2022/07/21 02:19:24;;;;;;;;;8.00;7.00;;;;;;;;5051871;28;50910;-62
2022/07/21 02:21:50;;;;;;;;;6.67;6.67;;;;;;;;5051202;28;50937;-63
2022/07/21 02:24:15;;;;;;;;;8.00;8.00;;;;;;;;5050632;28;52019;-63
2022/07/21 02:26:41;;;;;;;;;8.67;8.33;;;;;;;;5051297;28;51111;-62
2022/07/21 02:29:06;;;;;;;;;7.67;7.00;;;;;;;;5051398;28;51080;-62
2022/07/21 02:31:32;;;;;;;;;8.00;8.00;;;;;;;;5050789;28;50872;-62
2022/07/21 02:33:57;;;;;;;;;9.67;7.67;;;;;;;;5026740;28;53719;-63
2022/07/21 02:36:22;;;;;;;;;8.00;7.67;;;;;;;;5050960;28;51138;-61
2022/07/21 02:38:47;;;;;;;;;8.33;7.67;;;;;;;;5040803;28;51104;-61
2022/07/21 02:41:12;;;;;;;;;7.67;7.67;;;;;;;;5053135;28;51272;-61
2022/07/21 02:43:38;;;;;;;;;9.00;8.00;;;;;;;;5052168;28;51276;-62
2022/07/21 02:46:03;;;;;;;;;9.33;9.33;;;;;;;;5056673;28;50961;-62
2022/07/21 02:48:28;;;;;;;;;9.00;9.00;;;;;;;;5057497;28;51068;-62
2022/07/21 02:50:53;;;;;;;;;10.00;10.00;;;;;;;;5054547;28;50968;-62
2022/07/21 02:53:19;;;;;;;;;9.00;9.00;;;;;;;;5054139;28;51686;-62
2022/07/21 02:55:46;;;;;;;;;9.67;9.00;;;;;;;;5066390;28;50855;-62
2022/07/21 02:58:24;;;;;;;;;8.33;8.00;;;;;;;;5054391;28;50965;-62
2022/07/21 03:00:51;;;;;;;;;10.67;9.67;;;;;;;;5052385;28;51295;-61
2022/07/21 03:03:17;;;;;;;;;10.00;10.00;;;;;;;;5059085;28;51839;-61
2022/07/21 03:05:42;;;;;;;;;10.00;10.00;;;;;;;;5054517;28;51013;-61
2022/07/21 03:08:08;;;;;;;;;6.00;6.00;;;;;;;;5053889;28;51075;-61
2022/07/21 03:10:33;;;;;;;;;10.67;10.67;;;;;;;;5054091;28;50885;-63
2022/07/21 03:12:59;;;;;;;;;8.00;8.00;;;;;;;;5056018;28;51106;-61
2022/07/21 03:15:25;;;;;;;;;11.67;11.00;;;;;;;;5054180;28;50927;-60
2022/07/21 03:17:50;;;;;;;;;13.00;12.00;;;;;;;;5053870;28;50931;-63
2022/07/21 03:20:16;;;;;;;;;10.33;9.00;;;;;;;;5036238;28;51236;-62
2022/07/21 03:22:41;;;;;;;;;11.33;10.33;;;;;;;;5053048;28;50916;-62
2022/07/21 03:25:06;;;;;;;;;12.33;11.67;;;;;;;;5055589;28;50988;-62
2022/07/21 03:27:35;;;;;;;;;12.00;12.00;;;;;;;;5056938;28;50983;-60
2022/07/21 03:30:01;;;;;;;;;14.00;13.00;;;;;;;;5035423;28;51516;-62
2022/07/21 03:32:26;;;;;;;;;11.67;11.67;;;;;;;;5053503;28;51042;-63
2022/07/21 03:34:51;;;;;;;;;14.25;13.00;;;;;;;;5048132;28;51091;-64
2022/07/21 03:37:16;;;;;;;;;14.67;14.67;;;;;;;;5056616;28;52522;-63
2022/07/21 03:39:42;;;;;;;;;16.33;16.00;;;;;;;;5054438;28;51521;-61
2022/07/21 03:42:07;;;;;;;;;17.33;12.33;;;;;;;;5053656;28;51715;-62
2022/07/21 03:44:32;;;;;;;;;13.67;12.33;;;;;;;;5035281;28;50965;-62
2022/07/21 03:46:59;;;;;;;;;17.25;16.75;;;;;;;;5035274;28;51180;-62
2022/07/21 03:49:24;;;;;;;;;13.50;13.50;;;;;;;;5055236;28;51373;-63
2022/07/21 03:51:49;;;;;;;;;14.50;13.25;;;;;;;;5052414;28;51834;-60
2022/07/21 03:54:15;;;;;;;;;17.00;15.25;;;;;;;;5054418;28;51201;-62
2022/07/21 03:56:40;;;;;;;;;13.33;13.33;;;;;;;;5053498;28;50906;-61
2022/07/21 03:59:05;;;;;;;;;12.00;12.00;;;;;;;;5053332;28;50972;-62
2022/07/21 04:01:30;;;;;;;;;12.50;12.00;;;;;;;;5055184;28;51576;-62
2022/07/21 04:03:55;;;;;;;;;14.50;13.25;;;;;;;;5052986;28;51042;-62
2022/07/21 04:06:21;;;;;;;;;12.50;12.25;;;;;;;;5053151;28;51024;-62
2022/07/21 04:08:46;;;;;;;;;12.75;11.75;;;;;;;;5053017;28;50972;-62
2022/07/21 04:11:12;;;;;;;;;13.00;13.00;;;;;;;;5052760;28;51789;-62
2022/07/21 04:13:38;;;;;;;;;14.75;14.75;;;;;;;;5055300;28;51166;-62
2022/07/21 04:16:03;;;;;;;;;14.25;14.25;;;;;;;;5053404;28;50855;-62
2022/07/21 04:18:28;;;;;;;;;17.25;15.75;;;;;;;;5052702;28;51321;-62
2022/07/21 04:20:53;;;;;;;;;16.25;15.25;;;;;;;;5053473;28;52003;-61
2022/07/21 04:23:18;;;;;;;;;15.75;15.50;;;;;;;;5053239;28;51302;-62
2022/07/21 04:25:44;;;;;;;;;17.75;16.00;;;;;;;;5059352;28;51060;-62
2022/07/21 04:28:11;;;;;;;;;20.00;17.75;;;;;;;;5055053;28;51045;-62
2022/07/21 04:30:36;;;;;;;;;20.75;17.25;;;;;;;;5052300;28;52270;-61
2022/07/21 04:33:01;;;;;;;;;18.00;18.00;;;;;;;;5052789;28;51221;-61
2022/07/21 04:35:27;;;;;;;;;16.50;16.25;;;;;;;;5053158;28;51051;-62
2022/07/21 04:37:52;;;;;;;;;19.00;17.25;;;;;;;;5053136;28;51666;-62
2022/07/21 04:40:17;;;;;;;;;17.50;16.00;;;;;;;;5052357;28;51008;-62
2022/07/21 04:42:43;;;;;;;;;19.25;18.75;;;;;;;;5052106;28;51177;-61
2022/07/21 04:45:10;;;;;;;;;21.25;19.00;;;;;;;;5052689;28;51020;-60
2022/07/21 04:47:45;;;;;;;;;20.25;17.75;;;;;;;;5034375;28;51227;-62
2022/07/21 04:50:11;;;;;;;;;20.00;18.75;;;;;;;;5054530;28;52003;-61
2022/07/21 04:52:36;;;;;;;;;20.50;19.00;;;;;;;;5051793;28;50851;-61
2022/07/21 04:55:01;;;;;;;;;18.25;17.50;;;;;;;;5052541;28;51024;-61
2022/07/21 04:57:27;;;;;;;;;64.00;51.75;;;;;;;;5052014;28;51218;-61
2022/07/21 04:59:52;;;;;;;;;20.25;20.25;;;;;;;;5033997;28;52001;-62
2022/07/21 05:04:56;;;;;;;;;24.00;21.50;;;;;;;;5206277;22;51275;-62
2022/07/21 05:07:27;;;;;;;;;20.75;19.75;;;;;;;;5025955;28;51263;-62
2022/07/21 05:09:58;;;;;;;;;24.50;23.25;;;;;;;;5015944;28;51192;-63
2022/07/21 05:12:23;;;;;;;;;26.25;25.00;;;;;;;;5026199;28;51010;-63
2022/07/21 05:14:49;;;;;;;;;22.50;21.00;;;;;;;;5012928;28;51286;-62
2022/07/21 05:17:14;;;;;;;;;20.25;19.00;;;;;;;;5016836;28;51240;-62
2022/07/21 05:19:40;;;;;;;;;20.25;18.50;;;;;;;;5020558;28;51814;-62
2022/07/21 05:22:05;;;;;;;;;20.00;19.25;;;;;;;;5029880;28;50970;-62
2022/07/21 05:24:31;;;;;;;;;22.00;21.50;;;;;;;;5026431;28;51008;-62
2022/07/21 05:26:56;;;;;;;;;22.50;21.50;;;;;;;;5020272;28;51278;-62
2022/07/21 05:29:21;;;;;;;;;30.25;29.00;;;;;;;;5026750;28;51287;-62
2022/07/21 05:31:46;;;;;;;;;18.25;17.75;;;;;;;;5032154;28;51059;-62
2022/07/21 05:34:14;;;;;;;;;19.50;19.50;;;;;;;;5030219;28;51183;-62
2022/07/21 05:36:40;;;;;;;;;21.50;18.75;;;;;;;;5032007;28;51309;-63
2022/07/21 05:39:05;;;;;;;;;19.75;18.00;;;;;;;;5025594;28;51932;-62
2022/07/21 05:41:30;;;;;;;;;24.50;23.75;;;;;;;;5018781;28;51103;-62
2022/07/21 05:43:56;;;;;;;;;24.25;21.75;;;;;;;;5021980;28;51072;-62
2022/07/21 05:46:21;;;;;;;;;19.50;19.50;;;;;;;;5017405;28;51093;-63
2022/07/21 05:48:46;;;;;;;;;22.75;21.50;;;;;;;;5024117;28;51405;-62
2022/07/21 05:51:11;;;;;;;;;21.50;21.00;;;;;;;;5012174;28;51148;-62
2022/07/21 05:53:36;;;;;;;;;22.25;21.25;;;;;;;;5012379;28;51128;-63
2022/07/21 05:56:02;;;;;;;;;20.75;19.75;;;;;;;;5031934;28;51050;-62
2022/07/21 05:58:27;;;;;;;;;18.25;16.50;;;;;;;;5030912;28;51903;-62
2022/07/21 06:01:08;;;;;;;;;23.75;23.25;;;;;;;;5024935;28;50881;-62
2022/07/21 06:03:34;;;;;;;;;21.00;19.50;;;;;;;;5034268;28;51027;-62
2022/07/21 06:05:59;;;;;;;;;20.25;19.75;;;;;;;;5051666;28;51330;-62
2022/07/21 06:08:25;;;;;;;;;22.50;21.25;;;;;;;;5051401;28;51943;-62
2022/07/21 06:10:50;;;;;;;;;19.50;18.50;;;;;;;;5051544;28;51022;-61
2022/07/21 06:13:15;;;;;;;;;19.75;19.00;;;;;;;;5047232;28;51235;-62
2022/07/21 06:15:40;;;;;;;;;21.25;20.00;;;;;;;;5028697;28;51280;-62
2022/07/21 06:18:05;;;;;;;;;20.50;20.50;;;;;;;;5028351;28;51185;-62
2022/07/21 06:20:31;;;;;;;;;27.25;23.00;;;;;;;;5042544;28;51029;-63
2022/07/21 06:22:56;;;;;;;;;23.75;22.00;;;;;;;;5055019;28;50863;-63
2022/07/21 06:25:21;;;;;;;;;23.00;21.50;;;;;;;;5051007;28;50931;-63
2022/07/21 06:27:46;;;;;;;;;23.00;23.00;;;;;;;;5033960;28;51221;-63
2022/07/21 06:30:12;;;;;;;;;24.50;21.50;;;;;;;;5034404;28;50925;-62
2022/07/21 06:32:37;;;;;;;;;23.50;22.25;;;;;;;;5034438;28;50939;-63
2022/07/21 06:35:03;;;;;;;;;22.50;21.00;;;;;;;;5034701;28;51309;-62
2022/07/21 06:37:28;;;;;;;;;25.75;24.00;;;;;;;;5014956;28;51057;-62
2022/07/21 06:39:53;;;;;;;;;21.00;18.25;;;;;;;;5034479;28;51094;-62
2022/07/21 06:42:18;;;;;;;;;21.25;20.50;;;;;;;;5034189;28;50961;-62
2022/07/21 06:44:43;;;;;;;;;22.50;21.25;;;;;;;;5033746;28;51701;-62
2022/07/21 06:47:09;;;;;;;;;25.25;23.75;;;;;;;;5033449;28;50969;-63
2022/07/21 06:49:34;;;;;;;;;21.00;20.50;;;;;;;;5033189;28;50966;-63
2022/07/21 06:51:59;;;;;;;;;23.50;22.25;;;;;;;;5014902;28;51047;-63
2022/07/21 06:54:25;;;;;;;;;17.00;16.75;;;;;;;;5020889;28;51252;-63
2022/07/21 06:56:50;;;;;;;;;19.75;19.50;;;;;;;;5033630;28;51881;-64
2022/07/21 06:59:15;;;;;;;;;33.00;31.00;;;;;;;;5033746;28;50939;-64
2022/07/21 07:01:41;;;;;;;;;25.50;22.50;;;;;;;;5021601;28;51114;-63
2022/07/21 07:04:06;;;;;;;;;22.00;19.25;;;;;;;;5031107;28;51123;-63
2022/07/21 07:06:31;;;;;;;;;22.75;21.75;;;;;;;;5026631;28;53562;-64
2022/07/21 07:08:57;;;;;;;;;23.33;22.33;;;;;;;;5033885;28;51054;-63
2022/07/21 07:11:22;;;;;;;;;26.50;25.00;;;;;;;;5033938;28;51223;-62
2022/07/21 07:13:47;;;;;;;;;25.00;23.75;;;;;;;;5032455;28;51138;-64
2022/07/21 07:16:13;;;;;;;;;24.00;21.25;;;;;;;;5026200;28;52148;-63
2022/07/21 07:18:38;;;;;;;;;22.00;21.33;;;;;;;;5032698;28;51014;-63
2022/07/21 07:21:03;;;;;;;;;15.33;15.33;;;;;;;;5033666;28;51138;-63
2022/07/21 07:23:29;;;;;;;;;20.75;18.50;;;;;;;;5033704;28;51129;-64
2022/07/21 07:25:54;;;;;;;;;21.00;20.00;;;;;;;;5032688;28;52320;-62
2022/07/21 07:28:19;;;;;;;;;22.50;21.00;;;;;;;;5032611;28;50990;-64
2022/07/21 07:30:44;;;;;;;;;24.00;23.25;;;;;;;;5033398;28;51198;-62
2022/07/21 07:33:10;;;;;;;;;19.25;19.25;;;;;;;;5033674;28;51035;-63
2022/07/21 07:35:35;;;;;;;;;27.25;26.75;;;;;;;;5032257;28;51896;-63
2022/07/21 07:38:01;;;;;;;;;21.50;20.25;;;;;;;;5033090;28;51030;-64
2022/07/21 07:40:26;;;;;;;;;23.25;21.50;;;;;;;;5033010;28;51026;-64
2022/07/21 07:42:51;;;;;;;;;25.00;22.50;;;;;;;;5033337;28;50951;-62
2022/07/21 07:45:16;;;;;;;;;25.75;24.50;;;;;;;;5032122;28;51872;-64
2022/07/21 07:47:41;;;;;;;;;24.00;23.50;;;;;;;;5033274;28;50890;-64
2022/07/21 07:50:11;;;;;;;;;20.50;20.00;;;;;;;;5033294;28;50986;-63
2022/07/21 07:52:37;;;;;;;;;23.00;23.00;;;;;;;;5038097;28;51274;-63
2022/07/21 07:55:06;;;;;;;;;22.00;21.00;;;;;;;;5043999;28;51250;-63
2022/07/21 07:57:32;;;;;;;;;22.33;22.00;;;;;;;;5014666;28;50979;-63
2022/07/21 07:59:57;;;;;;;;;22.00;22.00;;;;;;;;5032447;28;51022;-64
2022/07/21 08:02:22;;;;;;;;;25.25;23.75;;;;;;;;5019561;28;50860;-64
2022/07/21 08:04:47;;;;;;;;;26.75;25.75;;;;;;;;5032639;28;51254;-63
2022/07/21 08:07:13;;;;;;;;;25.25;24.50;;;;;;;;5032747;28;51014;-63
2022/07/21 08:09:39;;;;;;;;;28.25;27.00;;;;;;;;5032133;28;51118;-63
2022/07/21 08:12:04;;;;;;;;;22.25;22.25;;;;;;;;5032309;28;51025;-63
2022/07/21 08:14:29;;;;;;;;;23.75;22.75;;;;;;;;5032157;28;51137;-62
2022/07/21 08:16:55;;;;;;;;;28.00;26.25;;;;;;;;5024550;28;50883;-62
2022/07/21 08:19:20;;;;;;;;;27.25;25.75;;;;;;;;5032587;28;51093;-62
2022/07/21 08:21:45;;;;;;;;;24.00;23.50;;;;;;;;5031782;28;51389;-63
2022/07/21 08:24:10;;;;;;;;;22.50;21.50;;;;;;;;5032528;28;51287;-63
2022/07/21 08:26:36;;;;;;;;;26.50;23.50;;;;;;;;5032458;28;50955;-63
2022/07/21 08:29:01;;;;;;;;;29.00;28.75;;;;;;;;5032531;28;50875;-63
2022/07/21 08:31:26;;;;;;;;;28.25;27.50;;;;;;;;5032656;28;51379;-63
2022/07/21 08:33:52;;;;;;;;;29.75;27.25;;;;;;;;5031205;28;52181;-63
2022/07/21 08:36:17;;;;;;;;;26.75;24.75;;;;;;;;5032342;28;51166;-63
2022/07/21 08:38:43;;;;;;;;;29.25;27.50;;;;;;;;5032347;28;51239;-64
2022/07/21 08:41:09;;;;;;;;;27.75;27.75;;;;;;;;5032263;28;51094;-63
2022/07/21 08:43:34;;;;;;;;;30.00;29.50;;;;;;;;5012934;28;52284;-62
2022/07/21 08:46:00;;;;;;;;;28.25;27.25;;;;;;;;5032195;28;51088;-62
2022/07/21 08:48:26;;;;;;;;;29.25;24.75;;;;;;;;5032428;28;51185;-64
2022/07/21 08:50:51;;;;;;;;;28.75;27.25;;;;;;;;5032256;28;51398;-63
2022/07/21 08:53:16;;;;;;;;;23.25;20.75;;;;;;;;5035319;28;52977;-63
2022/07/21 08:55:42;;;;;;;;;35.00;32.50;;;;;;;;5035032;28;50855;-62
2022/07/21 08:58:08;;;;;;;;;29.00;29.00;;;;;;;;5052065;28;51255;-62
2022/07/21 09:00:34;;;;;;;;;27.00;26.25;;;;;;;;5048346;28;50840;-62
2022/07/21 09:03:12;;;;;;;;;26.25;25.25;;;;;;;;5031632;28;51990;-62
2022/07/21 09:05:37;;;;;;;;;25.25;23.75;;;;;;;;5013130;28;51093;-63
2022/07/21 09:08:02;;;;;;;;;26.25;24.00;;;;;;;;5030964;28;51293;-63
2022/07/21 09:10:29;;;;;;;;;24.00;22.75;;;;;;;;5031780;28;51095;-62
2022/07/21 09:12:55;;;;;;;;;24.25;23.25;;;;;;;;5031834;28;51191;-62
2022/07/21 09:15:22;;;;;;;;;27.75;25.25;;;;;;;;5030759;28;50986;-63
2022/07/21 09:18:07;;;;;;;;;25.25;24.50;;;;;;;;5024059;28;50925;-63
2022/07/21 09:20:33;;;;;;;;;24.75;24.00;;;;;;;;5029558;28;51474;-63
2022/07/21 09:23:17;;;;;;;;;26.00;24.25;;;;;;;;5031287;28;51304;-63
2022/07/21 09:25:44;;;;;;;;;24.50;22.75;;;;;;;;5031376;28;50796;-63
2022/07/21 09:28:14;;;;;;;;;26.75;26.25;;;;;;;;5031101;28;50955;-63
2022/07/21 09:30:55;;;;;;;;;26.00;24.00;;;;;;;;5030606;28;51408;-63
2022/07/21 09:33:31;;;;;;;;;27.75;27.75;;;;;;;;5031261;28;50940;-63
2022/07/21 09:36:05;;;;;;;;;20.50;20.00;;;;;;;;5031100;28;51175;-62
2022/07/21 09:38:31;;;;;;;;;25.25;23.50;;;;;;;;5031536;28;50970;-63
2022/07/21 09:41:15;;;;;;;;;26.00;26.00;;;;;;;;5031555;28;51351;-63
2022/07/21 09:43:42;;;;;;;;;24.00;23.50;;;;;;;;5030150;28;52674;-63
2022/07/21 09:46:12;;;;;;;;;25.75;25.50;;;;;;;;5029025;28;50995;-63
2022/07/21 09:48:38;;;;;;;;;26.00;25.25;;;;;;;;5027776;28;50811;-63
2022/07/21 09:51:23;;;;;;;;;25.75;25.00;;;;;;;;5030900;28;51259;-63
2022/07/21 09:53:52;;;;;;;;;24.75;24.75;;;;;;;;5029799;28;52225;-62
2022/07/21 09:56:18;;;;;;;;;25.50;23.75;;;;;;;;5033902;28;51127;-63
2022/07/21 09:58:45;;;;;;;;;25.25;23.75;;;;;;;;5035814;28;51079;-64
2022/07/21 10:01:10;;;;;;;;;24.50;23.50;;;;;;;;5045733;28;51111;-63
2022/07/21 10:03:37;;;;;;;;;24.50;23.25;;;;;;;;5029081;28;51752;-64
2022/07/21 10:06:02;;;;;;;;;22.00;21.75;;;;;;;;5012921;28;50962;-64
2022/07/21 10:08:28;;;;;;;;;43.25;37.50;;;;;;;;5012944;28;51290;-64
2022/07/21 10:10:53;;;;;;;;;23.00;22.75;;;;;;;;5013514;28;51182;-64
2022/07/21 10:13:19;;;;;;;;;26.25;24.75;;;;;;;;5013541;28;52032;-64
2022/07/21 10:15:46;;;;;;;;;25.50;23.75;;;;;;;;5009440;28;50986;-63
2022/07/21 10:18:13;;;;;;;;;23.25;22.50;;;;;;;;5025897;28;50994;-62
2022/07/21 10:20:39;;;;;;;;;21.00;19.75;;;;;;;;5034302;28;51309;-64
2022/07/21 10:23:14;;;;;;;;;21.25;20.00;;;;;;;;5017122;28;51231;-63
2022/07/21 10:25:39;;;;;;;;;25.50;25.25;;;;;;;;5004815;28;51089;-63
2022/07/21 10:28:10;;;;;;;;;23.50;23.00;;;;;;;;5013918;28;51073;-64
2022/07/21 10:30:49;;;;;;;;;19.25;19.25;;;;;;;;5014599;28;50880;-64
2022/07/21 10:33:15;;;;;;;;;21.50;20.75;;;;;;;;5013789;28;51049;-65
2022/07/21 10:35:45;;;;;;;;;26.00;24.75;;;;;;;;5012847;28;51146;-63
2022/07/21 10:38:28;;;;;;;;;22.75;22.50;;;;;;;;5001072;28;51009;-63
2022/07/21 10:40:54;;;;;;;;;24.75;24.00;;;;;;;;5014403;28;51330;-63
2022/07/21 10:43:25;;;;;;;;;19.75;19.75;;;;;;;;5013621;28;52217;-62
2022/07/21 10:45:51;;;;;;;;;23.00;21.50;;;;;;;;5012986;28;50961;-64
2022/07/21 10:48:35;;;;;;;;;19.50;19.50;;;;;;;;5012154;28;50963;-63
2022/07/21 10:51:02;;;;;;;;;21.25;20.25;;;;;;;;5016556;28;51161;-63
2022/07/21 10:53:27;;;;;;;;;23.25;21.75;;;;;;;;5025543;28;52174;-63
2022/07/21 10:55:54;;;;;;;;;23.25;22.50;;;;;;;;5033080;28;51142;-64
2022/07/21 10:58:25;;;;;;;;;21.50;21.00;;;;;;;;5024543;28;51036;-63
2022/07/21 11:00:52;;;;;;;;;20.50;20.50;;;;;;;;5005852;28;51337;-63
2022/07/21 11:03:20;;;;;;;;;21.00;20.25;;;;;;;;5004946;28;51077;-63
2022/07/21 11:06:04;;;;;;;;;21.25;20.50;;;;;;;;5004594;28;50893;-63
2022/07/21 11:08:30;;;;;;;;;29.50;28.25;;;;;;;;5010350;28;51043;-63
2022/07/21 11:11:06;;;;;;;;;20.00;18.50;;;;;;;;5013991;28;51017;-65
2022/07/21 11:13:51;;;;;;;;;18.00;18.00;;;;;;;;5012729;28;51007;-64
2022/07/21 11:16:19;;;;;;;;;19.50;19.50;;;;;;;;5003731;28;51203;-64
2022/07/21 11:18:44;;;;;;;;;24.25;24.25;;;;;;;;5013347;28;51076;-64
2022/07/21 11:21:14;;;;;;;;;20.00;20.00;;;;;;;;5011891;28;50998;-64
2022/07/21 11:23:39;;;;;;;;;24.00;24.00;;;;;;;;5012656;28;51766;-64
2022/07/21 11:26:04;;;;;;;;;20.67;18.67;;;;;;;;5013266;28;50972;-64
2022/07/21 11:28:30;;;;;;;;;19.25;18.50;;;;;;;;5019470;28;50981;-64
2022/07/21 11:31:08;;;;;;;;;15.25;15.00;;;;;;;;5031756;28;51447;-64
2022/07/21 11:33:35;;;;;;;;;22.00;22.00;;;;;;;;5013218;28;52054;-63
2022/07/21 11:36:00;;;;;;;;;19.00;18.67;;;;;;;;5013114;28;50997;-64
2022/07/21 11:38:26;;;;;;;;;18.25;17.25;;;;;;;;5013185;28;50925;-64
2022/07/21 11:40:51;;;;;;;;;19.67;19.00;;;;;;;;5012919;28;51144;-64
2022/07/21 11:43:16;;;;;;;;;24.75;24.50;;;;;;;;5011396;28;51819;-64
2022/07/21 11:45:51;;;;;;;;;22.50;22.50;;;;;;;;5012419;28;50870;-64
2022/07/21 11:48:29;;;;;;;;;20.75;19.75;;;;;;;;5013085;28;51071;-64
2022/07/21 11:51:01;;;;;;;;;20.50;20.00;;;;;;;;5015916;28;50882;-62
2022/07/21 11:53:26;;;;;;;;;20.00;19.00;;;;;;;;5023152;28;51905;-65
2022/07/21 11:55:53;;;;;;;;;18.00;17.50;;;;;;;;5021994;28;50992;-64
2022/07/21 11:58:19;;;;;;;;;18.00;18.00;;;;;;;;5011185;28;51150;-64
2022/07/21 12:00:46;;;;;;;;;16.00;16.00;;;;;;;;5007510;28;51377;-64
2022/07/21 12:03:12;;;;;;;;;18.50;17.50;;;;;;;;5004472;28;51274;-63
2022/07/21 12:05:39;;;;;;;;;18.67;18.00;;;;;;;;5012338;28;51115;-64
2022/07/21 12:08:04;;;;;;;;;16.00;16.00;;;;;;;;5010279;28;51303;-64
2022/07/21 12:10:30;;;;;;;;;18.75;18.50;;;;;;;;5012339;28;51055;-64
2022/07/21 12:13:02;;;;;;;;;19.33;17.67;;;;;;;;5012365;28;51872;-66
2022/07/21 12:15:31;;;;;;;;;19.67;18.33;;;;;;;;5009288;28;51136;-63
2022/07/21 12:18:06;;;;;;;;;19.00;18.33;;;;;;;;5004403;28;51436;-64
2022/07/21 12:20:41;;;;;;;;;16.00;15.33;;;;;;;;5020762;28;51273;-65
2022/07/21 12:23:21;;;;;;;;;18.33;18.33;;;;;;;;5016052;28;52807;-64
2022/07/21 12:25:47;;;;;;;;;19.50;18.00;;;;;;;;5012559;28;51041;-63
2022/07/21 12:28:12;;;;;;;;;17.67;16.33;;;;;;;;5011086;28;50993;-64
2022/07/21 12:30:39;;;;;;;;;18.00;16.33;;;;;;;;5011254;28;50933;-63
2022/07/21 12:33:12;;;;;;;;;19.67;19.00;;;;;;;;5012030;28;51519;-64
2022/07/21 12:35:38;;;;;;;;;20.50;20.00;;;;;;;;5012449;28;50980;-64
2022/07/21 12:38:05;;;;;;;;;17.25;16.75;;;;;;;;5011825;28;51007;-64
2022/07/21 12:40:31;;;;;;;;;20.50;20.50;;;;;;;;5010661;28;50971;-64
2022/07/21 12:43:12;;;;;;;;;13.67;13.67;;;;;;;;5011184;28;50996;-63
2022/07/21 12:46:03;;;;;;;;;20.67;20.00;;;;;;;;5012199;28;51052;-64
2022/07/21 12:48:35;;;;;;;;;20.00;19.50;;;;;;;;5006183;28;51820;-65
2022/07/21 12:51:03;;;;;;;;;18.00;18.00;;;;;;;;5013120;28;51152;-65
2022/07/21 12:53:34;;;;;;;;;20.50;17.75;;;;;;;;5011306;28;51158;-64
2022/07/21 12:56:00;;;;;;;;;16.00;16.00;;;;;;;;5012140;28;51067;-65
2022/07/21 12:58:25;;;;;;;;;18.33;17.33;;;;;;;;5012278;28;51115;-64
2022/07/21 13:00:51;;;;;;;;;19.75;19.75;;;;;;;;5004922;28;51074;-64
2022/07/21 13:03:16;;;;;;;;;19.33;19.00;;;;;;;;5005004;28;52188;-64
2022/07/21 13:05:41;;;;;;;;;17.25;17.25;;;;;;;;5005567;28;51126;-64
2022/07/21 13:08:07;;;;;;;;;17.00;17.00;;;;;;;;5011612;28;51093;-64
2022/07/21 13:10:32;;;;;;;;;19.00;18.25;;;;;;;;5011888;28;51175;-65
2022/07/21 13:12:58;;;;;;;;;19.33;18.00;;;;;;;;5010281;28;51047;-65
2022/07/21 13:15:23;;;;;;;;;18.67;17.67;;;;;;;;5009195;28;50903;-63
2022/07/21 13:17:48;;;;;;;;;17.33;16.00;;;;;;;;5002145;28;51565;-64
2022/07/21 13:20:14;;;;;;;;;20.00;19.00;;;;;;;;5011948;28;50923;-65
2022/07/21 13:22:40;;;;;;;;;15.33;14.67;;;;;;;;5011144;28;51758;-63
2022/07/21 13:25:06;;;;;;;;;18.33;17.00;;;;;;;;5010628;28;50861;-66
2022/07/21 13:27:32;;;;;;;;;20.67;19.67;;;;;;;;5010855;28;50982;-64
2022/07/21 13:29:57;;;;;;;;;20.67;19.00;;;;;;;;5011669;28;51271;-65
2022/07/21 13:32:23;;;;;;;;;20.00;19.33;;;;;;;;5011622;28;51183;-65
2022/07/21 13:34:48;;;;;;;;;20.33;20.33;;;;;;;;5010954;28;51215;-64
2022/07/21 13:37:13;;;;;;;;;19.33;18.00;;;;;;;;5010314;28;51081;-64
2022/07/21 13:39:39;;;;;;;;;16.67;15.67;;;;;;;;5011120;28;51088;-63
2022/07/21 13:42:05;;;;;;;;;20.50;19.50;;;;;;;;5011480;28;51861;-63
2022/07/21 13:44:31;;;;;;;;;18.25;17.50;;;;;;;;5010872;28;51005;-64
2022/07/21 13:46:57;;;;;;;;;19.33;19.33;;;;;;;;5010929;28;51170;-64
2022/07/21 13:49:22;;;;;;;;;18.33;17.67;;;;;;;;5011766;28;50962;-65
2022/07/21 13:51:47;;;;;;;;;20.33;19.67;;;;;;;;5015100;28;51139;-65
2022/07/21 13:54:12;;;;;;;;;18.67;17.67;;;;;;;;5028705;28;51165;-64
2022/07/21 13:56:38;;;;;;;;;17.00;17.00;;;;;;;;5031185;28;51186;-64
2022/07/21 13:59:03;;;;;;;;;23.50;23.00;;;;;;;;5023671;28;50838;-64
2022/07/21 14:01:29;;;;;;;;;22.67;22.00;;;;;;;;5022549;28;51294;-64
2022/07/21 14:03:54;;;;;;;;;22.00;21.67;;;;;;;;5008275;28;51269;-64
2022/07/21 14:06:19;;;;;;;;;19.00;19.00;;;;;;;;4986895;28;51066;-64
2022/07/21 14:08:45;;;;;;;;;23.50;22.25;;;;;;;;5009639;28;51168;-63
2022/07/21 14:11:13;;;;;;;;;19.75;19.75;;;;;;;;5010871;28;51483;-63
2022/07/21 14:13:39;;;;;;;;;19.50;19.25;;;;;;;;4988069;28;51471;-63
2022/07/21 14:16:04;;;;;;;;;20.00;20.00;;;;;;;;4986426;28;51218;-64
2022/07/21 14:18:29;;;;;;;;;24.50;22.25;;;;;;;;4989420;28;51256;-63
2022/07/21 14:20:55;;;;;;;;;20.50;20.50;;;;;;;;4972878;28;52846;-64
2022/07/21 14:23:21;;;;;;;;;17.33;16.33;;;;;;;;4973355;28;51000;-64
2022/07/21 14:25:47;;;;;;;;;21.33;20.00;;;;;;;;4988919;28;51176;-64